createdAt,value
2023-04-22T00:00:22.192Z,3.00
2023-04-22T00:02:51.360Z,3.20
2023-04-22T00:05:20.840Z,3.05
2023-04-22T00:07:51.819Z,2.90
2023-04-22T00:10:20.819Z,3.05
2023-04-22T00:12:49.826Z,3.20
2023-04-22T00:15:22.404Z,3.00
2023-04-22T00:17:53.899Z,3.08
2023-04-22T00:20:23.270Z,3.30
2023-04-22T00:22:53.924Z,2.80
2023-04-22T00:25:22.911Z,2.90
2023-04-22T00:27:52.031Z,3.05
2023-04-22T00:30:21.042Z,3.00
2023-04-22T00:32:50.161Z,3.00
2023-04-22T00:35:19.244Z,3.17
2023-04-22T00:37:48.242Z,3.15
2023-04-22T00:40:19.034Z,3.03
2023-04-22T00:42:50.577Z,3.25
2023-04-22T00:45:20.896Z,3.25
2023-04-22T00:47:50.332Z,2.80
2023-04-22T00:50:19.718Z,3.13
2023-04-22T00:52:48.727Z,3.10
2023-04-22T00:55:19.469Z,2.78
2023-04-22T00:57:50.699Z,2.58
2023-04-22T01:00:21.131Z,2.85
2023-04-22T01:02:50.927Z,2.70
2023-04-22T01:05:20.866Z,2.70
2023-04-22T01:07:50.035Z,3.00
2023-04-22T01:10:21.304Z,2.80
2023-04-22T01:12:50.253Z,3.55
2023-04-22T01:15:19.659Z,2.75
2023-04-22T01:17:48.955Z,2.70
2023-04-22T01:20:18.036Z,3.15
2023-04-22T01:22:47.779Z,2.90
2023-04-22T01:25:18.869Z,2.80
2023-04-22T01:27:47.904Z,3.15
2023-04-22T01:30:17.703Z,3.30
2023-04-22T01:32:47.143Z,2.80
2023-04-22T01:35:16.300Z,2.70
2023-04-22T01:37:45.685Z,2.88
2023-04-22T01:40:20.543Z,2.90
2023-04-22T01:42:51.500Z,3.13
2023-04-22T01:45:20.755Z,2.95
2023-04-22T01:47:49.786Z,2.72
2023-04-22T01:50:18.816Z,2.70
2023-04-22T01:52:48.035Z,3.05
2023-04-22T01:55:17.303Z,2.85
2023-04-22T01:57:46.509Z,2.88
2023-04-22T02:00:17.758Z,2.90
2023-04-22T02:02:46.786Z,2.80
2023-04-22T02:05:16.717Z,2.70
2023-04-22T02:07:46.058Z,2.95
2023-04-22T02:10:15.086Z,2.72
2023-04-22T02:12:44.074Z,2.80
2023-04-22T02:15:13.428Z,2.80
2023-04-22T02:17:44.372Z,3.22
2023-04-22T02:20:14.163Z,3.08
2023-04-22T02:22:44.482Z,2.75
2023-04-22T02:25:14.826Z,2.83
2023-04-22T02:27:43.839Z,2.90
2023-04-22T02:30:13.311Z,2.70
2023-04-22T02:32:44.107Z,2.88
2023-04-22T02:35:13.245Z,2.88
2023-04-22T02:37:44.548Z,3.15
2023-04-22T02:40:14.144Z,2.85
2023-04-22T02:42:43.162Z,3.33
2023-04-22T02:45:12.943Z,3.10
2023-04-22T02:47:43.656Z,4.63
2023-04-22T02:50:13.283Z,5.18
2023-04-22T02:52:42.283Z,4.00
2023-04-22T02:55:11.850Z,4.03
2023-04-22T02:57:40.844Z,3.90
2023-04-22T03:00:11.532Z,4.00
2023-04-22T03:02:40.737Z,3.60
2023-04-22T03:05:12.363Z,3.55
2023-04-22T03:07:41.427Z,3.58
2023-04-22T03:10:11.142Z,3.22
2023-04-22T03:12:40.308Z,3.38
2023-04-22T03:15:10.089Z,3.22
2023-04-22T03:17:39.202Z,3.42
2023-04-22T03:20:11.065Z,3.20
2023-04-22T03:22:40.122Z,3.45
2023-04-22T03:25:09.779Z,3.45
2023-04-22T03:27:38.967Z,3.22
2023-04-22T03:30:08.990Z,3.83
2023-04-22T03:32:38.035Z,3.60
2023-04-22T03:35:07.885Z,3.67
2023-04-22T03:37:38.602Z,3.58
2023-04-22T03:40:08.961Z,3.88
2023-04-22T03:42:37.980Z,3.60
2023-04-22T03:45:08.084Z,3.58
2023-04-22T03:47:37.151Z,4.00
2023-04-22T03:50:06.974Z,3.50
2023-04-22T03:52:37.670Z,3.83
2023-04-22T03:55:07.392Z,3.63
2023-04-22T03:57:36.661Z,4.00
2023-04-22T04:00:06.638Z,3.58
2023-04-22T04:02:35.853Z,4.00
2023-04-22T04:05:05.867Z,4.10
2023-04-22T04:07:34.935Z,3.70
2023-04-22T04:10:05.935Z,3.92
2023-04-22T04:12:34.904Z,3.50
2023-04-22T04:15:04.225Z,3.83
2023-04-22T04:17:33.300Z,3.80
2023-04-22T04:20:02.587Z,4.25
2023-04-22T04:22:31.576Z,4.55
2023-04-22T04:25:00.545Z,3.92
2023-04-22T04:27:31.726Z,3.80
2023-04-22T04:30:00.790Z,4.00
2023-04-22T04:32:29.944Z,4.13
2023-04-22T04:34:58.987Z,4.05
2023-04-22T04:37:28.107Z,4.25
2023-04-22T04:40:00.160Z,4.03
2023-04-22T04:42:31.441Z,4.28
2023-04-22T04:45:00.447Z,4.20
2023-04-22T04:47:30.949Z,4.35
2023-04-22T04:49:59.962Z,4.10
2023-04-22T04:52:28.934Z,4.22
2023-04-22T04:54:57.909Z,4.07
2023-04-22T04:57:26.972Z,4.38
2023-04-22T04:59:56.828Z,4.88
2023-04-22T05:02:26.190Z,4.60
2023-04-22T05:04:55.555Z,4.10
2023-04-22T05:07:24.656Z,4.20
2023-04-22T05:09:53.631Z,4.15
2023-04-22T05:12:22.710Z,4.18
2023-04-22T05:14:51.661Z,4.00
2023-04-22T05:17:22.721Z,4.30
2023-04-22T05:19:51.778Z,3.97
2023-04-22T05:22:20.942Z,4.30
2023-04-22T05:24:50.209Z,4.25
2023-04-22T05:27:19.629Z,4.72
2023-04-22T05:29:48.630Z,4.63
2023-04-22T05:32:17.842Z,4.47
2023-04-22T05:34:48.423Z,4.18
2023-04-22T05:37:17.680Z,4.57
2023-04-22T05:39:47.103Z,4.35
2023-04-22T05:42:16.097Z,4.47
2023-04-22T05:44:45.053Z,4.30
2023-04-22T05:47:14.038Z,4.00
2023-04-22T05:49:43.165Z,4.47
2023-04-22T05:52:13.810Z,4.90
2023-04-22T05:54:42.777Z,4.72
2023-04-22T05:57:11.900Z,4.20
2023-04-22T05:59:41.087Z,5.07
2023-04-22T06:02:10.427Z,4.93
2023-04-22T06:04:39.820Z,4.80
2023-04-22T06:07:09.109Z,4.90
2023-04-22T06:09:39.974Z,4.78
2023-04-22T06:12:09.265Z,4.43
2023-04-22T06:14:38.274Z,4.18
2023-04-22T06:17:07.332Z,4.60
2023-04-22T06:19:36.508Z,4.25
2023-04-22T06:22:05.557Z,4.70
2023-04-22T06:24:34.533Z,4.57
2023-04-22T06:27:05.322Z,4.10
2023-04-22T06:29:34.746Z,4.13
2023-04-22T06:32:04.398Z,4.55
2023-04-22T06:34:33.344Z,4.43
2023-04-22T06:37:02.590Z,4.25
2023-04-22T06:39:31.603Z,4.97
2023-04-22T06:42:00.627Z,4.40
2023-04-22T06:44:31.986Z,4.05
2023-04-22T06:47:01.158Z,4.22
2023-04-22T06:49:30.213Z,4.32
2023-04-22T06:51:59.305Z,4.22
2023-04-22T06:54:28.295Z,4.30
2023-04-22T06:56:57.408Z,4.43
2023-04-22T06:59:26.525Z,4.57
2023-04-22T07:01:57.201Z,4.70
2023-04-22T07:04:28.423Z,3.95
2023-04-22T07:06:57.539Z,5.20
2023-04-22T07:09:26.536Z,4.63
2023-04-22T07:11:55.602Z,4.47
2023-04-22T07:14:26.030Z,4.07
2023-04-22T07:16:56.673Z,4.85
2023-04-22T07:19:25.631Z,4.57
2023-04-22T07:21:55.396Z,4.40
2023-04-22T07:24:24.499Z,4.45
2023-04-22T07:26:53.482Z,4.65
2023-04-22T07:29:22.709Z,4.22
2023-04-22T07:31:52.010Z,3.83
2023-04-22T07:34:22.728Z,4.13
2023-04-22T07:36:53.148Z,4.30
2023-04-22T07:39:22.131Z,4.10
2023-04-22T07:41:52.068Z,4.07
2023-04-22T07:44:22.479Z,4.35
2023-04-22T07:46:51.572Z,3.88
2023-04-22T07:49:22.252Z,4.30
2023-04-22T07:51:52.017Z,4.07
2023-04-22T07:54:21.070Z,3.85
2023-04-22T07:56:50.099Z,4.03
2023-04-22T07:59:19.086Z,4.30
2023-04-22T08:01:48.380Z,4.18
2023-04-22T08:04:17.892Z,4.20
2023-04-22T08:06:48.804Z,4.22
2023-04-22T08:09:17.764Z,4.30
2023-04-22T08:11:46.737Z,4.38
2023-04-22T08:14:15.727Z,4.03
2023-04-22T08:16:44.818Z,4.40
2023-04-22T08:19:13.820Z,3.90
2023-04-22T08:21:42.759Z,3.90
2023-04-22T08:24:13.520Z,3.90
2023-04-22T08:26:43.061Z,4.13
2023-04-22T08:29:12.150Z,3.88
2023-04-22T08:31:41.301Z,3.92
2023-04-22T08:34:10.294Z,3.95
2023-04-22T08:36:39.280Z,4.32
2023-04-22T08:39:08.512Z,4.53
2023-04-22T08:41:40.455Z,4.40
2023-04-22T08:44:10.461Z,4.40
2023-04-22T08:46:40.313Z,4.13
2023-04-22T08:49:09.667Z,3.72
2023-04-22T08:51:39.220Z,4.55
2023-04-22T08:54:08.761Z,4.10
2023-04-22T08:56:42.474Z,4.18
2023-04-22T08:59:12.452Z,4.80
2023-04-22T09:01:42.579Z,4.80
2023-04-22T09:04:12.406Z,4.50
2023-04-22T09:06:41.465Z,4.47
2023-04-22T09:09:10.854Z,4.38
2023-04-22T09:11:41.586Z,4.55
2023-04-22T09:14:10.567Z,4.00
2023-04-22T09:16:44.012Z,4.43
2023-04-22T09:19:16.810Z,4.10
2023-04-22T09:21:48.310Z,4.80
2023-04-22T09:24:19.079Z,4.13
2023-04-22T09:26:50.254Z,3.83
2023-04-22T09:29:19.268Z,3.58
2023-04-22T09:31:51.245Z,3.75
2023-04-22T09:34:22.843Z,3.80
2023-04-22T09:36:53.111Z,3.90
2023-04-22T09:39:22.282Z,3.83
2023-04-22T09:41:57.735Z,4.13
2023-04-22T09:44:29.715Z,4.22
2023-04-22T09:47:00.438Z,3.83
2023-04-22T09:49:29.467Z,4.30
2023-04-22T09:52:01.735Z,4.60
2023-04-22T09:54:30.786Z,4.15
2023-04-22T09:57:02.309Z,4.80
2023-04-22T09:59:32.401Z,4.50
2023-04-22T10:02:05.255Z,4.88
2023-04-22T10:04:34.993Z,4.28
2023-04-22T10:07:04.046Z,4.03
2023-04-22T10:09:33.983Z,3.90
2023-04-22T10:12:05.954Z,4.50
2023-04-22T10:14:35.186Z,4.75
2023-04-22T10:17:05.833Z,4.30
2023-04-22T10:19:36.203Z,3.83
2023-04-22T10:22:05.993Z,4.15
2023-04-22T10:24:38.226Z,4.82
2023-04-22T10:27:11.767Z,3.92
2023-04-22T10:29:44.031Z,3.80
2023-04-22T10:32:27.688Z,3.90
2023-04-22T10:35:14.459Z,4.55
2023-04-22T10:37:44.382Z,4.20
2023-04-22T10:40:17.353Z,5.13
2023-04-22T10:42:53.013Z,4.28
2023-04-22T10:45:27.518Z,3.83
2023-04-22T10:47:56.460Z,4.20
2023-04-22T10:50:29.738Z,4.97
2023-04-22T10:53:00.198Z,5.05
2023-04-22T10:55:52.920Z,4.80
2023-04-22T10:58:31.313Z,4.70
2023-04-22T11:01:04.002Z,4.45
2023-04-22T11:03:33.400Z,4.30
2023-04-22T11:06:19.695Z,4.22
2023-04-22T11:08:51.330Z,3.80
2023-04-22T11:11:20.610Z,4.00
2023-04-22T11:13:52.617Z,4.90
2023-04-22T11:16:24.157Z,4.20
2023-04-22T11:18:53.401Z,4.30
2023-04-22T11:21:22.668Z,4.05
2023-04-22T11:23:53.492Z,4.35
2023-04-22T11:26:35.927Z,4.57
2023-04-22T11:29:06.696Z,4.20
2023-04-22T11:31:37.452Z,4.57
2023-04-22T11:34:09.979Z,4.20
2023-04-22T11:36:39.025Z,4.30
2023-04-22T11:39:12.018Z,5.28
2023-04-22T11:41:43.147Z,4.28
2023-04-22T11:44:16.407Z,4.43
2023-04-22T11:46:46.382Z,4.28
2023-04-22T11:49:16.328Z,4.38
2023-04-22T11:51:56.284Z,5.07
2023-04-22T11:54:33.605Z,4.85
2023-04-22T11:57:04.655Z,4.07
2023-04-22T11:59:35.325Z,4.30
2023-04-22T12:02:07.223Z,3.47
2023-04-22T12:04:39.316Z,3.90
2023-04-22T12:07:08.756Z,4.03
2023-04-22T12:09:38.088Z,4.07
2023-04-22T12:12:07.683Z,4.13
2023-04-22T12:14:38.638Z,4.25
2023-04-22T12:17:11.674Z,4.18
2023-04-22T12:19:40.936Z,4.15
2023-04-22T12:22:10.186Z,4.20
2023-04-22T12:24:45.611Z,3.88
2023-04-22T12:27:14.578Z,4.35
2023-04-22T12:29:53.942Z,4.55
2023-04-22T12:32:24.907Z,4.40
2023-04-22T12:34:54.128Z,4.25
2023-04-22T12:37:23.175Z,4.25
2023-04-22T12:39:52.242Z,5.43
2023-04-22T12:42:21.383Z,4.85
2023-04-22T12:44:52.000Z,4.10
2023-04-22T12:47:21.140Z,3.67
2023-04-22T12:49:50.397Z,4.45
2023-04-22T12:52:19.390Z,4.15
2023-04-22T12:54:48.805Z,3.80
2023-04-22T12:57:17.822Z,3.80
2023-04-22T12:59:48.125Z,3.88
2023-04-22T13:02:18.885Z,4.60
2023-04-22T13:04:47.942Z,4.47
2023-04-22T13:07:18.341Z,4.38
2023-04-22T13:09:47.450Z,3.85
2023-04-22T13:12:16.549Z,4.43
2023-04-22T13:14:45.550Z,4.50
2023-04-22T13:17:14.669Z,4.55
2023-04-22T13:19:46.566Z,4.00
2023-04-22T13:22:15.579Z,4.40
2023-04-22T13:24:44.587Z,4.18
2023-04-22T13:27:14.185Z,3.85
2023-04-22T13:29:43.712Z,4.13
2023-04-22T13:32:12.985Z,3.92
2023-04-22T13:34:42.098Z,3.95
2023-04-22T13:37:12.958Z,3.67
2023-04-22T13:39:42.193Z,4.28
2023-04-22T13:42:12.030Z,4.57
2023-04-22T13:44:41.201Z,4.60
2023-04-22T13:47:10.202Z,4.70
2023-04-22T13:49:39.459Z,3.95
2023-04-22T13:52:08.558Z,4.13
2023-04-22T13:54:39.226Z,4.32
2023-04-22T13:57:08.255Z,4.07
2023-04-22T13:59:37.704Z,3.97
2023-04-22T14:02:06.999Z,3.83
2023-04-22T14:04:36.088Z,4.28
2023-04-22T14:07:05.937Z,4.03
2023-04-22T14:09:35.480Z,3.83
2023-04-22T14:12:06.734Z,4.38
2023-04-22T14:14:35.814Z,3.80
2023-04-22T14:17:04.941Z,4.10
2023-04-22T14:19:34.545Z,3.72
2023-04-22T14:22:03.742Z,3.75
2023-04-22T14:24:32.834Z,4.03
2023-04-22T14:27:04.619Z,4.30
2023-04-22T14:29:35.286Z,4.22
2023-04-22T14:32:04.313Z,4.60
2023-04-22T14:34:33.358Z,3.97
2023-04-22T14:37:02.344Z,3.83
2023-04-22T14:39:31.459Z,3.90
2023-04-22T14:42:00.498Z,4.03
2023-04-22T14:44:29.626Z,3.80
2023-04-22T14:47:00.301Z,3.97
2023-04-22T14:49:30.186Z,4.32
2023-04-22T14:52:02.022Z,4.05
2023-04-22T14:54:31.270Z,3.35
2023-04-22T14:57:00.301Z,3.88
2023-04-22T14:59:29.448Z,3.33
2023-04-22T15:02:00.454Z,3.05
2023-04-22T15:04:29.851Z,3.50
2023-04-22T15:06:58.959Z,3.15
2023-04-22T15:09:28.812Z,3.22
2023-04-22T15:12:00.443Z,3.00
2023-04-22T15:14:29.449Z,3.08
2023-04-22T15:17:00.241Z,3.05
2023-04-22T15:19:29.359Z,3.35
2023-04-22T15:21:58.442Z,3.42
2023-04-22T15:24:27.937Z,3.03
2023-04-22T15:26:57.615Z,3.03
2023-04-22T15:29:26.651Z,3.03
2023-04-22T15:31:55.850Z,3.20
2023-04-22T15:34:26.920Z,3.88
2023-04-22T15:36:56.131Z,3.30
2023-04-22T15:39:26.132Z,3.70
2023-04-22T15:41:55.197Z,3.65
2023-04-22T15:44:24.600Z,3.20
2023-04-22T15:46:53.832Z,4.28
2023-04-22T15:49:22.865Z,2.97
2023-04-22T15:51:53.928Z,4.13
2023-04-22T15:54:22.977Z,3.40
2023-04-22T15:56:51.966Z,3.47
2023-04-22T15:59:21.069Z,3.75
2023-04-22T16:01:51.015Z,3.80
2023-04-22T16:04:22.070Z,3.50
2023-04-22T16:06:52.963Z,3.85
2023-04-22T16:09:22.174Z,3.55
2023-04-22T16:11:51.135Z,3.40
2023-04-22T16:14:20.105Z,4.20
2023-04-22T16:16:49.228Z,3.42
2023-04-22T16:19:20.449Z,3.67
2023-04-22T16:21:49.572Z,3.40
2023-04-22T16:24:20.241Z,3.17
2023-04-22T16:26:49.232Z,3.33
2023-04-22T16:29:18.814Z,3.38
2023-04-22T16:31:47.906Z,3.00
2023-04-22T16:34:17.354Z,3.47
2023-04-22T16:36:46.447Z,3.30
2023-04-22T16:39:15.479Z,3.30
2023-04-22T16:41:46.156Z,3.20
2023-04-22T16:44:15.166Z,3.13
2023-04-22T16:46:44.212Z,3.30
2023-04-22T16:49:14.446Z,3.55
2023-04-22T16:51:43.441Z,3.00
2023-04-22T16:54:12.528Z,3.80
2023-04-22T16:56:41.752Z,3.78
2023-04-22T16:59:12.355Z,3.55
2023-04-22T17:01:41.678Z,3.45
2023-04-22T17:04:12.117Z,4.00
2023-04-22T17:06:41.839Z,3.85
2023-04-22T17:09:10.893Z,4.20
2023-04-22T17:11:40.095Z,4.03
2023-04-22T17:14:09.860Z,3.50
2023-04-22T17:16:40.597Z,4.00
2023-04-22T17:19:09.564Z,3.78
2023-04-22T17:21:38.961Z,3.67
2023-04-22T17:24:08.283Z,4.00
2023-04-22T17:26:37.950Z,3.70
2023-04-22T17:29:07.305Z,4.18
2023-04-22T17:31:40.207Z,3.97
2023-04-22T17:34:09.350Z,4.03
2023-04-22T17:36:38.356Z,4.07
2023-04-22T17:39:07.424Z,3.83
2023-04-22T17:41:37.007Z,3.80
2023-04-22T17:44:08.292Z,4.22
2023-04-22T17:46:37.337Z,3.88
2023-04-22T17:49:08.051Z,3.67
2023-04-22T17:51:37.054Z,3.85
2023-04-22T17:54:06.304Z,4.55
2023-04-22T17:56:35.416Z,4.00
2023-04-22T17:59:04.547Z,4.40
2023-04-22T18:01:33.625Z,4.78
2023-04-22T18:04:03.359Z,4.63
2023-04-22T18:06:34.280Z,4.18
2023-04-22T18:09:03.249Z,4.60
2023-04-22T18:11:32.249Z,4.20
2023-04-22T18:14:01.623Z,4.20
2023-04-22T18:16:30.703Z,3.83
2023-04-22T18:19:00.673Z,4.20
2023-04-22T18:21:30.711Z,4.00
2023-04-22T18:24:03.360Z,4.10
2023-04-22T18:26:32.411Z,4.45
2023-04-22T18:29:01.467Z,4.57
2023-04-22T18:31:30.568Z,4.07
2023-04-22T18:33:59.841Z,4.30
2023-04-22T18:36:29.846Z,4.70
2023-04-22T18:39:00.577Z,4.65
2023-04-22T18:41:29.559Z,4.28
2023-04-22T18:43:58.513Z,3.92
2023-04-22T18:46:27.521Z,3.72
2023-04-22T18:48:56.584Z,4.30
2023-04-22T18:51:25.618Z,4.18
2023-04-22T18:53:54.815Z,4.45
2023-04-22T18:56:25.456Z,3.88
2023-04-22T18:58:55.319Z,3.78
2023-04-22T19:01:24.453Z,4.57
2023-04-22T19:03:53.546Z,3.90
2023-04-22T19:06:22.594Z,4.10
2023-04-22T19:08:53.699Z,4.00
2023-04-22T19:11:22.833Z,3.63
2023-04-22T19:13:53.776Z,3.80
2023-04-22T19:16:24.953Z,3.67
2023-04-22T19:18:55.369Z,3.78
2023-04-22T19:21:24.358Z,3.75
2023-04-22T19:23:53.816Z,3.60
2023-04-22T19:26:23.165Z,3.70
2023-04-22T19:28:54.065Z,3.70
2023-04-22T19:31:23.156Z,3.70
2023-04-22T19:33:52.284Z,3.90
2023-04-22T19:36:21.418Z,3.55
2023-04-22T19:38:50.425Z,3.90
2023-04-22T19:41:19.374Z,4.03
2023-04-22T19:43:48.442Z,3.80
2023-04-22T19:46:19.141Z,4.05
2023-04-22T19:48:49.928Z,3.40
2023-04-22T19:51:19.455Z,4.22
2023-04-22T19:53:49.155Z,4.30
2023-04-22T19:56:18.751Z,3.22
2023-04-22T19:58:48.477Z,3.83
2023-04-22T20:01:19.926Z,3.92
2023-04-22T20:03:50.297Z,3.72
2023-04-22T20:06:20.257Z,4.13
2023-04-22T20:08:52.933Z,3.88
2023-04-22T20:11:22.488Z,3.70
2023-04-22T20:13:51.659Z,3.60
2023-04-22T20:16:24.285Z,3.50
2023-04-22T20:18:53.410Z,3.95
2023-04-22T20:21:22.556Z,4.03
2023-04-22T20:23:53.483Z,4.00
2023-04-22T20:26:23.139Z,3.17
2023-04-22T20:28:55.955Z,4.03
2023-04-22T20:31:27.001Z,3.60
2023-04-22T20:33:56.365Z,3.63
2023-04-22T20:36:27.015Z,3.55
2023-04-22T20:38:59.101Z,3.85
2023-04-22T20:41:28.659Z,3.70
2023-04-22T20:43:58.380Z,3.70
2023-04-22T20:46:29.303Z,3.60
2023-04-22T20:48:58.346Z,3.72
2023-04-22T20:51:29.234Z,3.78
2023-04-22T20:53:58.483Z,3.92
2023-04-22T20:56:28.184Z,3.78
2023-04-22T20:58:57.434Z,3.80
2023-04-22T21:01:29.965Z,3.55
2023-04-22T21:03:59.636Z,3.88
2023-04-22T21:06:34.791Z,3.70
2023-04-22T21:09:04.301Z,3.70
2023-04-22T21:11:33.852Z,4.32
2023-04-22T21:14:03.383Z,3.97
2023-04-22T21:16:37.200Z,3.65
2023-04-22T21:19:07.903Z,3.92
2023-04-22T21:21:39.973Z,4.03
2023-04-22T21:24:10.077Z,3.97
2023-04-22T21:26:41.101Z,3.90
2023-04-22T21:29:10.570Z,4.03
2023-04-22T21:31:41.469Z,4.32
2023-04-22T21:34:10.708Z,4.10
2023-04-22T21:36:39.900Z,3.83
2023-04-22T21:39:09.298Z,3.50
2023-04-22T21:41:38.353Z,4.07
2023-04-22T21:44:07.587Z,3.80
2023-04-22T21:46:36.689Z,4.18
2023-04-22T21:49:07.347Z,3.70
2023-04-22T21:51:36.507Z,3.60
2023-04-22T21:54:05.754Z,3.85
2023-04-22T21:56:35.767Z,3.72
2023-04-22T21:59:04.806Z,3.72
2023-04-22T22:01:33.841Z,4.10
2023-04-22T22:04:03.114Z,3.67
2023-04-22T22:06:34.186Z,4.00
2023-04-22T22:09:03.252Z,3.92
2023-04-22T22:11:32.244Z,4.18
2023-04-22T22:14:01.410Z,4.25
2023-04-22T22:16:31.778Z,3.70
2023-04-22T22:19:03.301Z,4.03
2023-04-22T22:21:33.993Z,4.00
2023-04-22T22:24:02.991Z,4.00
2023-04-22T22:26:32.111Z,4.10
2023-04-22T22:29:01.227Z,4.00
2023-04-22T22:31:30.274Z,4.22
2023-04-22T22:33:59.711Z,3.92
2023-04-22T22:36:28.983Z,4.10
2023-04-22T22:38:59.974Z,4.13
2023-04-22T22:41:28.983Z,3.92
2023-04-22T22:43:57.956Z,4.15
2023-04-22T22:46:27.125Z,4.05
2023-04-22T22:48:56.414Z,4.43
2023-04-22T22:51:25.446Z,4.47
2023-04-22T22:53:54.489Z,4.25
2023-04-22T22:56:25.354Z,4.30
2023-04-22T22:58:54.361Z,4.70
2023-04-22T23:01:23.712Z,4.28
2023-04-22T23:03:53.036Z,4.25
2023-04-22T23:06:22.678Z,4.53
2023-04-22T23:08:51.905Z,4.40
2023-04-22T23:11:20.893Z,4.20
2023-04-22T23:13:51.554Z,4.20
2023-04-22T23:16:20.652Z,4.03
2023-04-22T23:18:51.223Z,4.63
2023-04-22T23:21:21.996Z,3.95
2023-04-22T23:23:52.223Z,4.22
2023-04-22T23:26:21.705Z,4.30
2023-04-22T23:28:53.397Z,4.45
2023-04-22T23:31:24.853Z,3.88
2023-04-22T23:33:56.605Z,4.13
2023-04-22T23:36:27.543Z,4.03
2023-04-22T23:38:57.969Z,4.25
2023-04-22T23:41:27.694Z,4.32
2023-04-22T23:43:58.739Z,4.20
2023-04-22T23:46:27.890Z,4.00
2023-04-22T23:48:58.051Z,4.05
2023-04-22T23:51:28.490Z,4.15
2023-04-22T23:53:57.527Z,4.30
2023-04-22T23:56:27.389Z,4.18
2023-04-22T23:58:58.941Z,4.18
